Time;durP1;ratioP1;P1;durP2;ratioP2;P2;SDS_P1;SDS_P2;PMS_P1;PMS_P2;Temp;Humidity;BMP_temperature;BMP_pressure;BME280_temperature;BME280_humidity;BME280_pressure;Samples;Min_cycle;Max_cycle;Signal;HPM_P1;HPM_P2
2021/08/01 00:01:36;;;;;;;0.00;0.00;;;19.40;99.90;;;;;;4861256;29;20041;-75
2021/08/01 00:04:02;;;;;;;0.00;0.00;;;19.50;99.90;;;;;;4844396;29;20607;-76
2021/08/01 00:06:27;;;;;;;0.00;0.00;;;19.60;99.90;;;;;;4859842;29;20025;-76
2021/08/01 00:08:54;;;;;;;0.10;0.10;;;19.60;99.90;;;;;;4861139;29;20494;-76
2021/08/01 00:11:19;;;;;;;0.00;0.00;;;19.60;99.90;;;;;;4861120;29;20025;-75
2021/08/01 00:13:45;;;;;;;0.10;0.10;;;19.40;99.90;;;;;;4860985;29;20031;-76
2021/08/01 00:16:11;;;;;;;0.00;0.00;;;19.30;99.90;;;;;;4860852;29;20493;-75
2021/08/01 00:18:37;;;;;;;0.00;0.00;;;19.40;99.90;;;;;;4908120;23;20045;-95
2021/08/01 00:21:04;;;;;;;0.10;0.10;;;19.40;99.90;;;;;;4870703;29;20013;-96
2021/08/01 00:23:30;;;;;;;0.00;0.00;;;19.20;99.90;;;;;;4870641;29;20010;-95
2021/08/01 00:25:57;;;;;;;0.05;0.05;;;19.10;99.90;;;;;;4870605;29;20081;-94
2021/08/01 00:28:23;;;;;;;0.00;0.00;;;19.20;99.90;;;;;;4870663;29;20006;-93
2021/08/01 00:30:49;;;;;;;0.10;0.10;;;19.20;99.90;;;;;;4870555;29;20017;-93
2021/08/01 00:33:15;;;;;;;0.00;0.00;;;19.30;99.90;;;;;;4870432;29;20005;-94
2021/08/01 00:35:41;;;;;;;0.10;0.10;;;19.40;99.90;;;;;;4870491;29;20041;-93
2021/08/01 00:38:07;;;;;;;0.10;0.10;;;19.40;99.90;;;;;;4870565;29;20013;-93
2021/08/01 00:40:34;;;;;;;0.05;0.05;;;19.40;99.90;;;;;;4870360;29;20019;-92
2021/08/01 00:42:59;;;;;;;0.10;0.10;;;19.20;99.90;;;;;;4870275;29;20033;-94
2021/08/01 00:45:25;;;;;;;2.20;2.10;;;19.10;99.90;;;;;;4870191;29;20047;-93
2021/08/01 00:47:51;;;;;;;0.00;0.00;;;19.10;99.90;;;;;;4870377;29;20005;-94
2021/08/01 00:50:17;;;;;;;0.00;0.00;;;19.10;99.90;;;;;;4870153;29;20001;-93
2021/08/01 00:52:46;;;;;;;0.10;0.10;;;19.10;99.90;;;;;;4870213;29;20033;-93
2021/08/01 00:55:15;;;;;;;0.03;0.03;;;19.10;99.90;;;;;;4870157;29;20010;-94
2021/08/01 00:57:40;;;;;;;0.05;0.05;;;19.10;99.90;;;;;;4871000;29;20021;-93
2021/08/01 01:00:24;;;;;;;0.00;0.00;;;18.80;99.90;;;;;;4870002;29;20020;-93
2021/08/01 01:02:53;;;;;;;0.03;0.03;;;18.80;99.90;;;;;;4869834;29;20114;-93
2021/08/01 01:05:35;;;;;;;0.10;0.10;;;18.90;99.90;;;;;;4869993;29;20041;-94
2021/08/01 01:08:04;;;;;;;0.00;0.00;;;18.90;99.90;;;;;;4870042;29;20077;-93
2021/08/01 01:10:37;;;;;;;0.00;0.00;;;19.00;99.90;;;;;;4869933;29;20169;-93
2021/08/01 01:13:15;;;;;;;0.25;0.25;;;19.00;99.90;;;;;;4869766;29;20028;-94
2021/08/01 01:15:50;;;;;;;0.00;0.00;;;18.70;99.90;;;;;;4869931;29;20081;-93
2021/08/01 01:18:22;;;;;;;4.15;0.95;;;18.60;99.90;;;;;;4869797;29;20045;-93
2021/08/01 01:20:57;;;;;;;0.00;0.00;;;18.40;99.90;;;;;;4869805;29;20034;-93
2021/08/01 01:24:01;;;;;;;0.03;0.03;;;18.40;99.90;;;;;;4869663;29;20050;-93
2021/08/01 01:26:38;;;;;;;1.45;0.90;;;18.40;99.90;;;;;;4869792;29;20017;-93
2021/08/01 01:29:29;;;;;;;0.10;0.10;;;18.40;99.90;;;;;;4869844;29;20004;-94
2021/08/01 01:32:04;;;;;;;0.10;0.10;;;18.30;99.90;;;;;;4869561;29;20095;-93
2021/08/01 01:34:47;;;;;;;0.00;0.00;;;18.20;99.90;;;;;;4869796;29;20042;-92
2021/08/01 01:37:17;;;;;;;0.00;0.00;;;18.30;99.90;;;;;;4869774;29;20006;-93
2021/08/01 01:39:45;;;;;;;0.00;0.00;;;18.30;99.90;;;;;;4869643;29;20017;-93
2021/08/01 01:42:12;;;;;;;0.08;0.08;;;18.60;99.90;;;;;;4869530;29;20106;-93
2021/08/01 01:44:38;;;;;;;0.00;0.00;;;18.60;99.90;;;;;;4869617;29;20013;-93
2021/08/01 01:47:05;;;;;;;0.45;0.43;;;18.50;99.90;;;;;;4869645;29;20006;-93
2021/08/01 01:49:32;;;;;;;0.10;0.10;;;18.40;99.90;;;;;;4869616;29;20025;-93
2021/08/01 01:51:58;;;;;;;0.50;0.50;;;18.40;99.90;;;;;;4869458;29;20009;-93
2021/08/01 01:54:25;;;;;;;0.00;0.00;;;18.40;99.90;;;;;;4869642;29;20009;-94
2021/08/01 01:56:52;;;;;;;0.10;0.10;;;18.50;99.90;;;;;;4869501;29;20009;-93
2021/08/01 02:03:33;;;;;;;0.00;0.00;;;18.70;99.90;;;;;;4888932;29;20024;-94
2021/08/01 02:05:58;;;;;;;0.00;0.00;;;18.90;99.90;;;;;;4873149;29;20013;-93
2021/08/01 02:08:25;;;;;;;0.00;0.00;;;18.90;99.90;;;;;;4873194;29;20020;-94
2021/08/01 02:10:58;;;;;;;0.00;0.00;;;18.90;99.90;;;;;;4873137;29;20018;-94
2021/08/01 02:13:30;;;;;;;0.00;0.00;;;19.00;99.90;;;;;;4873016;29;20004;-93
2021/08/01 02:15:59;;;;;;;0.38;0.38;;;19.00;99.90;;;;;;4872944;29;20077;-95
2021/08/01 02:18:30;;;;;;;0.00;0.00;;;18.90;99.90;;;;;;4872768;29;20021;-93
2021/08/01 02:20:57;;;;;;;0.00;0.00;;;18.80;99.90;;;;;;4872787;29;20068;-94
2021/08/01 02:23:30;;;;;;;0.10;0.10;;;18.80;99.90;;;;;;4872727;29;20043;-93
2021/08/01 02:25:57;;;;;;;0.00;0.00;;;18.70;99.90;;;;;;4872637;29;20013;-93
2021/08/01 02:28:27;;;;;;;0.00;0.00;;;18.70;99.90;;;;;;4872665;29;20006;-94
2021/08/01 02:30:56;;;;;;;0.00;0.00;;;18.70;99.90;;;;;;4872573;29;20010;-93
2021/08/01 02:33:27;;;;;;;0.03;0.03;;;18.80;99.90;;;;;;4872531;29;20031;-94
2021/08/01 02:36:00;;;;;;;1.13;0.45;;;18.80;99.90;;;;;;4872628;29;20005;-94
2021/08/01 02:38:27;;;;;;;0.00;0.00;;;18.80;99.90;;;;;;4872513;29;20025;-94
2021/08/01 02:41:02;;;;;;;0.00;0.00;;;19.00;99.90;;;;;;4872466;29;20033;-94
2021/08/01 02:43:31;;;;;;;0.00;0.00;;;18.80;99.90;;;;;;4872380;29;20039;-95
2021/08/01 02:45:57;;;;;;;0.10;0.10;;;18.80;99.90;;;;;;4872349;29;20026;-93
2021/08/01 02:48:25;;;;;;;0.03;0.03;;;18.70;99.90;;;;;;4872346;29;20038;-93
2021/08/01 02:51:02;;;;;;;0.15;0.15;;;18.80;99.90;;;;;;4872253;29;20017;-94
2021/08/01 02:53:36;;;;;;;;;;;18.70;99.90;;;;;;4873766;29;20021;-93
2021/08/01 02:56:04;;;;;;;0.00;0.00;;;18.70;99.90;;;;;;4872284;29;19907;-94
2021/08/01 02:58:31;;;;;;;0.10;0.10;;;18.70;99.90;;;;;;4872130;29;20085;-94
2021/08/01 03:00:57;;;;;;;0.00;0.00;;;18.80;99.90;;;;;;4872033;29;20053;-94
2021/08/01 03:03:24;;;;;;;0.30;0.30;;;18.80;99.90;;;;;;4871965;29;20040;-93
2021/08/01 03:05:50;;;;;;;0.00;0.00;;;18.70;99.90;;;;;;4872034;29;20040;-92
2021/08/01 03:08:16;;;;;;;0.00;0.00;;;18.50;99.90;;;;;;4872066;29;20009;-93
2021/08/01 03:10:50;;;;;;;0.52;0.52;;;18.60;99.90;;;;;;4870917;29;20077;-94
2021/08/01 03:13:22;;;;;;;0.00;0.00;;;18.50;99.90;;;;;;4872067;29;20001;-94
2021/08/01 03:15:52;;;;;;;0.10;0.10;;;18.30;99.90;;;;;;4872009;29;20073;-93
2021/08/01 03:18:21;;;;;;;4.35;1.52;;;18.10;99.90;;;;;;4871714;29;20032;-94
2021/08/01 03:20:46;;;;;;;0.00;0.00;;;18.10;99.90;;;;;;4871704;29;20023;-93
2021/08/01 03:23:12;;;;;;;0.00;0.00;;;18.00;99.90;;;;;;4871693;29;20009;-93
2021/08/01 03:25:39;;;;;;;0.20;0.20;;;18.00;99.90;;;;;;4871591;29;20017;-93
2021/08/01 03:28:05;;;;;;;0.93;0.90;;;18.10;99.90;;;;;;4871629;29;20005;-93
2021/08/01 03:30:31;;;;;;;2.55;0.82;;;17.80;99.90;;;;;;4871534;29;20066;-93
2021/08/01 03:32:57;;;;;;;0.10;0.10;;;17.70;99.90;;;;;;4871532;29;20038;-93
2021/08/01 03:35:23;;;;;;;0.32;0.32;;;17.60;99.90;;;;;;4871663;29;20005;-93
2021/08/01 03:37:49;;;;;;;1.00;0.90;;;17.40;99.90;;;;;;4871491;29;20026;-93
2021/08/01 03:40:15;;;;;;;1.27;1.17;;;17.20;99.90;;;;;;4871502;29;20013;-93
2021/08/01 03:42:41;;;;;;;0.00;0.00;;;17.00;99.90;;;;;;4871247;29;20016;-93
2021/08/01 03:45:09;;;;;;;3.85;1.17;;;17.00;99.90;;;;;;4871299;29;20013;-94
2021/08/01 03:47:35;;;;;;;0.10;0.10;;;17.00;99.90;;;;;;4871308;29;20014;-93
2021/08/01 03:50:01;;;;;;;1.75;1.00;;;17.00;99.90;;;;;;4871352;29;20021;-93
2021/08/01 03:52:27;;;;;;;0.03;0.03;;;16.90;99.90;;;;;;4871116;29;20006;-94
2021/08/01 03:54:53;;;;;;;0.10;0.10;;;16.90;99.90;;;;;;4871353;29;20027;-94
2021/08/01 03:57:18;;;;;;;0.20;0.20;;;16.80;99.90;;;;;;4871180;29;20013;-93
2021/08/01 03:59:44;;;;;;;1.05;1.05;;;16.70;99.90;;;;;;4871007;29;20013;-93
2021/08/01 04:02:10;;;;;;;0.73;0.73;;;16.50;99.90;;;;;;4870903;29;20013;-92
2021/08/01 04:04:36;;;;;;;1.23;1.15;;;16.20;99.90;;;;;;4871013;29;20033;-93
2021/08/01 04:07:02;;;;;;;1.17;1.05;;;15.90;99.90;;;;;;4870996;29;20006;-94
2021/08/01 04:09:28;;;;;;;0.20;0.20;;;15.80;99.90;;;;;;4871062;29;20009;-93
2021/08/01 04:11:54;;;;;;;1.40;0.30;;;15.70;99.90;;;;;;4870708;29;20025;-94
2021/08/01 04:14:20;;;;;;;0.38;0.32;;;15.70;99.90;;;;;;4870820;29;20022;-93
2021/08/01 04:16:45;;;;;;;0.77;0.45;;;15.70;99.90;;;;;;4870659;29;20005;-92
2021/08/01 04:19:15;;;;;;;0.40;0.40;;;15.70;99.90;;;;;;4870926;29;20013;-92
2021/08/01 04:21:42;;;;;;;0.35;0.35;;;15.80;99.90;;;;;;4870155;29;20030;-95
2021/08/01 04:24:08;;;;;;;0.35;0.35;;;15.80;99.90;;;;;;4870775;29;20153;-96
2021/08/01 04:26:34;;;;;;;0.10;0.10;;;15.70;99.90;;;;;;4870652;29;20110;-95
2021/08/01 04:29:00;;;;;;;1.45;1.08;;;15.60;99.90;;;;;;4870621;29;20026;-96
2021/08/01 04:31:26;;;;;;;0.80;0.80;;;15.60;99.90;;;;;;4870464;29;20016;-95
2021/08/01 04:33:52;;;;;;;1.35;1.25;;;15.50;99.90;;;;;;4870730;29;20013;-95
2021/08/01 04:36:18;;;;;;;1.13;1.02;;;15.40;99.90;;;;;;4870478;29;20102;-96
2021/08/01 04:38:47;;;;;;;0.20;0.20;;;15.40;99.90;;;;;;4870631;29;20006;-95
2021/08/01 04:41:13;;;;;;;0.70;0.70;;;15.40;99.90;;;;;;4870275;29;20013;-95
2021/08/01 04:43:38;;;;;;;0.70;0.50;;;15.30;99.90;;;;;;4870338;29;20033;-95
2021/08/01 04:46:04;;;;;;;0.90;0.40;;;15.30;99.90;;;;;;4870420;29;20038;-95
2021/08/01 04:48:30;;;;;;;1.45;0.95;;;15.30;99.90;;;;;;4870289;29;20014;-95
2021/08/01 04:50:55;;;;;;;0.10;0.10;;;15.10;99.90;;;;;;4870344;29;20010;-95
2021/08/01 04:53:21;;;;;;;0.77;0.75;;;15.30;99.90;;;;;;4870167;29;20002;-95
2021/08/01 04:55:47;;;;;;;0.38;0.32;;;15.20;99.90;;;;;;4870285;29;20013;-95
2021/08/01 04:58:13;;;;;;;0.15;0.15;;;15.10;99.90;;;;;;4870056;29;20016;-96
2021/08/01 05:00:39;;;;;;;0.20;0.20;;;15.20;99.90;;;;;;4870214;29;20018;-95
2021/08/01 05:03:05;;;;;;;0.30;0.30;;;15.20;99.90;;;;;;4870023;29;20009;-95
2021/08/01 05:05:40;;;;;;;0.30;0.30;;;15.20;99.90;;;;;;4870117;29;20020;-96
2021/08/01 05:08:06;;;;;;;0.20;0.20;;;15.20;99.90;;;;;;4870056;29;20021;-94
2021/08/01 05:10:32;;;;;;;0.10;0.10;;;15.10;99.90;;;;;;4870118;29;20063;-95
2021/08/01 05:12:58;;;;;;;0.30;0.30;;;15.10;99.90;;;;;;4869892;29;20034;-95
2021/08/01 05:15:24;;;;;;;0.13;0.13;;;15.00;99.90;;;;;;4870082;29;20014;-96
2021/08/01 05:17:50;;;;;;;0.10;0.10;;;14.90;99.90;;;;;;4869776;29;20026;-96
2021/08/01 05:20:17;;;;;;;0.43;0.32;;;15.00;99.90;;;;;;4869984;29;20012;-95
2021/08/01 05:22:42;;;;;;;0.10;0.10;;;15.10;99.90;;;;;;4869711;29;20016;-95
2021/08/01 05:25:09;;;;;;;0.63;0.63;;;15.00;99.90;;;;;;4869828;29;20014;-96
2021/08/01 05:27:34;;;;;;;0.10;0.10;;;15.10;99.90;;;;;;4869709;29;20040;-95
2021/08/01 05:30:00;;;;;;;0.13;0.13;;;15.20;99.90;;;;;;4869790;29;20009;-95
2021/08/01 05:32:31;;;;;;;0.10;0.10;;;15.20;99.90;;;;;;4868845;29;20009;-95
2021/08/01 05:34:57;;;;;;;0.22;0.22;;;15.10;99.90;;;;;;4869934;29;20035;-96
2021/08/01 05:37:22;;;;;;;0.10;0.10;;;15.10;99.90;;;;;;4869723;29;20006;-95
2021/08/01 05:39:48;;;;;;;0.30;0.30;;;15.00;99.90;;;;;;4869719;29;20041;-95
2021/08/01 05:42:16;;;;;;;0.10;0.10;;;15.00;99.90;;;;;;4869590;29;20009;-94
2021/08/01 05:44:42;;;;;;;0.10;0.10;;;14.80;99.90;;;;;;4869693;29;20022;-95
2021/08/01 05:47:10;;;;;;;1.65;0.50;;;15.00;99.90;;;;;;4869654;29;19998;-96
2021/08/01 05:49:36;;;;;;;0.45;0.45;;;15.10;99.90;;;;;;4869699;29;20005;-96
2021/08/01 05:52:02;;;;;;;0.17;0.17;;;14.90;99.90;;;;;;4869376;29;20012;-95
2021/08/01 05:54:28;;;;;;;0.20;0.20;;;14.90;99.90;;;;;;4869596;29;20017;-95
2021/08/01 05:56:54;;;;;;;0.10;0.10;;;14.90;99.90;;;;;;4869495;29;20014;-95
2021/08/01 05:59:20;;;;;;;0.13;0.13;;;14.90;99.90;;;;;;4869577;29;20014;-95
2021/08/01 06:01:46;;;;;;;0.30;0.30;;;14.90;99.90;;;;;;4869420;29;20077;-95
2021/08/01 06:04:13;;;;;;;0.10;0.10;;;14.90;99.90;;;;;;4869480;29;20017;-95
2021/08/01 06:06:39;;;;;;;0.10;0.10;;;15.10;99.90;;;;;;4869521;29;20130;-95
2021/08/01 06:09:04;;;;;;;0.50;0.35;;;15.20;99.90;;;;;;4869423;29;20017;-95
2021/08/01 06:11:30;;;;;;;0.20;0.20;;;15.30;99.90;;;;;;4869352;29;20081;-95
2021/08/01 06:14:05;;;;;;;0.40;0.32;;;15.30;99.90;;;;;;4870540;29;20039;-96
2021/08/01 06:16:31;;;;;;;0.10;0.10;;;15.30;99.90;;;;;;4869498;29;20006;-96
2021/08/01 06:18:57;;;;;;;0.10;0.10;;;15.30;99.90;;;;;;4869010;29;20021;-95
2021/08/01 06:21:31;;;;;;;0.20;0.20;;;15.20;99.90;;;;;;4869350;29;20118;-95
2021/08/01 06:24:13;;;;;;;1.00;0.40;;;15.30;99.90;;;;;;4884748;29;20033;-95
2021/08/01 06:26:44;;;;;;;0.10;0.10;;;15.20;99.90;;;;;;4869875;29;20018;-95
2021/08/01 06:29:22;;;;;;;0.10;0.10;;;15.20;99.90;;;;;;4869530;29;20020;-95
2021/08/01 06:32:00;;;;;;;0.20;0.20;;;15.40;99.90;;;;;;4869573;29;19998;-96
2021/08/01 06:34:33;;;;;;;0.20;0.20;;;15.30;99.90;;;;;;4870135;29;20021;-95
2021/08/01 06:37:01;;;;;;;0.10;0.10;;;15.10;99.90;;;;;;4869303;29;20014;-95
2021/08/01 06:39:44;;;;;;;;;;;15.20;99.90;;;;;;4871102;29;20021;-95
2021/08/01 06:42:10;;;;;;;0.10;0.10;;;15.40;99.90;;;;;;4869106;29;19939;-96
2021/08/01 06:44:35;;;;;;;0.00;0.00;;;15.30;99.90;;;;;;4870839;29;20013;-96
2021/08/01 06:47:01;;;;;;;0.10;0.10;;;15.50;99.90;;;;;;4872496;29;20009;-95
2021/08/01 06:49:27;;;;;;;0.05;0.05;;;15.30;99.90;;;;;;4872416;29;20029;-95
2021/08/01 06:51:53;;;;;;;0.90;0.55;;;15.40;99.90;;;;;;4872331;29;20012;-96
2021/08/01 06:54:19;;;;;;;0.10;0.10;;;15.50;99.90;;;;;;4872251;29;20071;-95
2021/08/01 06:56:45;;;;;;;1.33;0.75;;;15.50;99.90;;;;;;4872270;29;20005;-95
2021/08/01 06:59:11;;;;;;;0.13;0.13;;;15.50;99.90;;;;;;4872380;29;20034;-95
2021/08/01 07:01:40;;;;;;;0.30;0.30;;;15.50;99.90;;;;;;4871919;29;20005;-95
2021/08/01 07:04:06;;;;;;;0.10;0.10;;;15.50;99.90;;;;;;4872486;29;20021;-94
2021/08/01 07:06:35;;;;;;;1.48;0.45;;;15.40;99.90;;;;;;4872342;29;20082;-96
2021/08/01 07:12:02;;;;;;;0.20;0.20;;;15.30;99.90;;;;;;4874324;29;20052;-95
2021/08/01 07:14:27;;;;;;;0.10;0.10;;;15.30;99.90;;;;;;4871905;29;20010;-95
2021/08/01 07:16:53;;;;;;;0.10;0.10;;;15.50;99.90;;;;;;4871821;29;20025;-95
2021/08/01 07:19:19;;;;;;;1.10;0.28;;;15.50;99.90;;;;;;4871904;29;20009;-94
2021/08/01 07:21:45;;;;;;;0.75;0.30;;;15.50;99.90;;;;;;4871750;29;20043;-96
2021/08/01 07:24:10;;;;;;;0.10;0.10;;;15.50;99.90;;;;;;4871664;29;20009;-95
2021/08/01 07:26:36;;;;;;;0.25;0.25;;;15.70;99.90;;;;;;4871670;29;20013;-96
2021/08/01 07:29:02;;;;;;;0.05;0.05;;;15.50;99.90;;;;;;4871650;29;20012;-94
2021/08/01 07:31:27;;;;;;;0.10;0.10;;;15.50;99.90;;;;;;4871556;29;20005;-95
2021/08/01 07:33:53;;;;;;;0.40;0.30;;;15.80;99.90;;;;;;4871600;29;20016;-96
2021/08/01 07:36:19;;;;;;;0.10;0.10;;;15.70;99.90;;;;;;4871571;29;20013;-95
2021/08/01 07:38:44;;;;;;;0.10;0.10;;;15.80;99.90;;;;;;4871524;29;20014;-95
2021/08/01 07:41:10;;;;;;;0.17;0.17;;;16.20;99.90;;;;;;4871238;29;20105;-95
2021/08/01 07:43:36;;;;;;;0.47;0.45;;;16.20;99.90;;;;;;4871384;29;20080;-93
2021/08/01 07:46:01;;;;;;;0.10;0.10;;;16.10;99.90;;;;;;4871312;29;20021;-94
2021/08/01 07:48:27;;;;;;;2.63;1.17;;;16.20;99.90;;;;;;4871275;29;20013;-93
2021/08/01 07:50:53;;;;;;;0.10;0.10;;;16.20;99.90;;;;;;4871151;29;20047;-95
2021/08/01 07:53:18;;;;;;;0.13;0.13;;;16.30;99.90;;;;;;4870757;29;20014;-94
2021/08/01 07:55:44;;;;;;;0.10;0.10;;;16.30;99.90;;;;;;4870449;29;20009;-95
2021/08/01 07:58:23;;;;;;;0.10;0.10;;;16.50;99.90;;;;;;4871220;29;20032;-93
2021/08/01 08:00:54;;;;;;;0.10;0.10;;;16.60;99.90;;;;;;4870754;29;20046;-92
2021/08/01 08:03:20;;;;;;;0.10;0.10;;;16.60;99.90;;;;;;4871724;24;20050;-77
2021/08/01 08:05:45;;;;;;;0.10;0.10;;;16.90;99.90;;;;;;4841348;29;20033;-76
2021/08/01 08:08:11;;;;;;;0.10;0.10;;;17.00;99.90;;;;;;4841344;29;20022;-75
2021/08/01 08:10:37;;;;;;;1.58;1.23;;;17.00;99.90;;;;;;4842398;29;20029;-75
2021/08/01 08:13:03;;;;;;;0.10;0.10;;;17.00;99.90;;;;;;4840932;29;20022;-76
2021/08/01 08:15:28;;;;;;;0.13;0.13;;;17.20;99.90;;;;;;4841032;29;20395;-76
2021/08/01 08:17:54;;;;;;;0.10;0.10;;;17.20;99.90;;;;;;4842294;29;20106;-77
2021/08/01 08:20:20;;;;;;;1.38;1.10;;;17.20;99.90;;;;;;4842160;29;20435;-78
2021/08/01 08:22:46;;;;;;;0.20;0.20;;;17.00;99.90;;;;;;4840851;29;20415;-76
2021/08/01 08:25:12;;;;;;;0.10;0.10;;;16.70;99.90;;;;;;4843417;29;20102;-76
2021/08/01 08:27:38;;;;;;;0.65;0.65;;;16.70;99.90;;;;;;4859432;29;20030;-76
2021/08/01 08:30:06;;;;;;;0.25;0.25;;;16.70;99.90;;;;;;4860308;29;20111;-76
2021/08/01 08:32:33;;;;;;;0.17;0.17;;;16.40;99.90;;;;;;4859096;29;20033;-76
2021/08/01 08:35:00;;;;;;;0.10;0.10;;;16.40;99.90;;;;;;4860141;29;20077;-77
2021/08/01 08:37:26;;;;;;;0.10;0.10;;;16.70;99.90;;;;;;4859759;29;20093;-76
2021/08/01 08:39:52;;;;;;;0.10;0.10;;;16.90;99.90;;;;;;4857144;29;20022;-77
2021/08/01 08:42:18;;;;;;;0.10;0.10;;;17.20;99.90;;;;;;4858552;29;20339;-77
2021/08/01 08:44:44;;;;;;;0.10;0.10;;;17.10;99.90;;;;;;4873635;29;20090;-76
2021/08/01 08:47:17;;;;;;;0.10;0.10;;;17.40;99.90;;;;;;4874071;29;20049;-75
2021/08/01 08:49:48;;;;;;;0.20;0.20;;;17.60;99.90;;;;;;4858553;29;20021;-76
2021/08/01 08:52:15;;;;;;;0.73;0.50;;;17.70;99.90;;;;;;4858975;29;20021;-76
2021/08/01 08:54:51;;;;;;;0.88;0.80;;;17.40;99.90;;;;;;4849618;29;20322;-78
2021/08/01 08:57:24;;;;;;;0.80;0.80;;;17.30;99.90;;;;;;4849972;29;20029;-76
2021/08/01 09:00:04;;;;;;;0.10;0.10;;;17.50;99.90;;;;;;4824968;29;20410;-76
2021/08/01 09:02:30;;;;;;;0.10;0.10;;;17.70;99.90;;;;;;4867323;29;20101;-77
2021/08/01 09:04:57;;;;;;;0.10;0.10;;;17.60;99.90;;;;;;4859672;29;20116;-76
2021/08/01 09:07:24;;;;;;;0.10;0.10;;;18.00;99.90;;;;;;4843256;29;20074;-76
2021/08/01 09:09:50;;;;;;;0.05;0.05;;;18.20;99.90;;;;;;4873938;29;20105;-77
2021/08/01 09:12:17;;;;;;;1.95;0.40;;;18.30;99.90;;;;;;4859827;29;20448;-76
2021/08/01 09:14:45;;;;;;;0.05;0.05;;;18.20;99.90;;;;;;4858454;29;20102;-76
2021/08/01 09:17:11;;;;;;;0.10;0.10;;;18.20;99.90;;;;;;4873930;29;20044;-76
2021/08/01 09:19:45;;;;;;;0.20;0.17;;;18.30;99.90;;;;;;4874051;29;20030;-76
2021/08/01 09:22:12;;;;;;;0.10;0.10;;;18.10;99.90;;;;;;4842897;29;20124;-75
2021/08/01 09:24:38;;;;;;;0.10;0.10;;;18.20;99.90;;;;;;4858336;29;20032;-78
2021/08/01 09:27:05;;;;;;;0.10;0.10;;;18.20;99.90;;;;;;4873879;29;20117;-76
2021/08/01 09:29:32;;;;;;;0.10;0.10;;;18.30;99.90;;;;;;4852363;29;20026;-76
2021/08/01 09:31:59;;;;;;;7.50;0.68;;;18.30;99.90;;;;;;4824346;29;20029;-76
2021/08/01 09:34:27;;;;;;;0.10;0.10;;;18.00;99.90;;;;;;4839257;29;20395;-76
2021/08/01 09:37:03;;;;;;;0.25;0.25;;;17.50;99.90;;;;;;4853072;29;20493;-77
2021/08/01 09:39:37;;;;;;;0.57;0.57;;;17.40;99.90;;;;;;4839924;29;20076;-77
2021/08/01 09:42:03;;;;;;;1.20;1.17;;;17.60;99.90;;;;;;4858183;29;20049;-76
2021/08/01 09:44:31;;;;;;;0.32;0.30;;;17.50;99.90;;;;;;4873369;29;20311;-75
2021/08/01 09:46:57;;;;;;;0.20;0.20;;;17.50;99.90;;;;;;4873676;29;20370;-76
2021/08/01 09:49:31;;;;;;;0.10;0.10;;;17.50;99.90;;;;;;4842866;29;20064;-76
2021/08/01 09:51:59;;;;;;;0.10;0.10;;;17.20;99.90;;;;;;4858092;29;20033;-77
2021/08/01 09:54:27;;;;;;;0.15;0.15;;;17.10;99.90;;;;;;4873505;29;20526;-77
2021/08/01 09:57:05;;;;;;;0.20;0.20;;;17.40;99.90;;;;;;4859413;29;20026;-77
2021/08/01 09:59:32;;;;;;;0.10;0.10;;;17.50;99.90;;;;;;4873799;29;20563;-76
2021/08/01 10:02:08;;;;;;;0.10;0.10;;;17.80;99.90;;;;;;4859239;29;20086;-76
2021/08/01 10:04:40;;;;;;;0.20;0.20;;;18.00;99.90;;;;;;4842973;29;20034;-76
2021/08/01 10:07:13;;;;;;;0.10;0.10;;;18.20;99.90;;;;;;4843016;29;20097;-77
2021/08/01 10:09:44;;;;;;;0.00;0.00;;;17.90;99.90;;;;;;4873476;29;20032;-77
2021/08/01 10:12:11;;;;;;;0.10;0.10;;;17.80;99.90;;;;;;4859297;29;20025;-77
2021/08/01 10:14:38;;;;;;;0.10;0.10;;;17.60;99.90;;;;;;4859236;29;20034;-77
2021/08/01 10:17:05;;;;;;;0.10;0.10;;;17.60;99.90;;;;;;4859225;29;20030;-77
2021/08/01 10:19:32;;;;;;;0.10;0.10;;;17.60;99.90;;;;;;4860906;29;20354;-77
2021/08/01 10:22:00;;;;;;;0.10;0.10;;;17.50;99.90;;;;;;4845931;29;20494;-77
2021/08/01 10:24:29;;;;;;;0.20;0.20;;;17.60;99.90;;;;;;4862668;29;20036;-77
2021/08/01 10:27:03;;;;;;;0.10;0.10;;;17.50;99.90;;;;;;4861624;29;20454;-76
2021/08/01 10:29:49;;;;;;;0.10;0.10;;;17.60;99.90;;;;;;4863129;29;20026;-76
2021/08/01 10:32:20;;;;;;;0.30;0.30;;;17.60;99.90;;;;;;4857119;29;20165;-76
2021/08/01 10:34:51;;;;;;;0.82;0.77;;;17.30;99.90;;;;;;4876723;29;20386;-77
2021/08/01 10:37:32;;;;;;;0.10;0.10;;;17.00;99.90;;;;;;4839576;29;20034;-76
2021/08/01 10:40:02;;;;;;;0.47;0.47;;;16.90;99.90;;;;;;4853812;29;20120;-78
2021/08/01 10:42:30;;;;;;;1.65;0.77;;;16.80;99.90;;;;;;4876250;29;20029;-77
2021/08/01 10:44:57;;;;;;;0.75;0.75;;;17.10;99.90;;;;;;4861065;29;20491;-77
2021/08/01 10:47:24;;;;;;;0.10;0.10;;;17.30;99.90;;;;;;4845515;29;20025;-77
2021/08/01 10:49:51;;;;;;;0.10;0.10;;;17.20;99.90;;;;;;4862214;29;20078;-77
2021/08/01 10:52:18;;;;;;;0.17;0.17;;;17.40;99.90;;;;;;4862147;29;20078;-76
2021/08/01 10:54:53;;;;;;;0.10;0.10;;;17.40;99.90;;;;;;4844957;29;20096;-76
2021/08/01 10:57:21;;;;;;;0.10;0.10;;;17.50;99.90;;;;;;4843287;29;20793;-76
2021/08/01 10:59:46;;;;;;;2.22;2.05;;;17.60;99.90;;;;;;4843576;29;20038;-76
2021/08/01 11:02:22;;;;;;;0.10;0.10;;;17.40;99.90;;;;;;4857454;29;20125;-78
2021/08/01 11:04:51;;;;;;;0.10;0.10;;;17.30;99.90;;;;;;4848741;29;20033;-78
2021/08/01 11:07:29;;;;;;;0.30;0.30;;;17.50;99.90;;;;;;4847563;29;20014;-77
2021/08/01 11:10:07;;;;;;;0.10;0.10;;;17.20;99.90;;;;;;4843502;29;20026;-77
2021/08/01 11:12:34;;;;;;;0.10;0.10;;;17.20;99.90;;;;;;4841921;29;20102;-77
2021/08/01 11:15:01;;;;;;;0.10;0.10;;;17.30;99.90;;;;;;4843267;29;20033;-77
2021/08/01 11:17:51;;;;;;;0.10;0.10;;;17.30;99.90;;;;;;4826607;29;20034;-77
2021/08/01 11:20:16;;;;;;;1.23;0.63;;;17.30;99.90;;;;;;4826957;29;20038;-76
2021/08/01 11:22:45;;;;;;;0.10;0.10;;;17.20;99.90;;;;;;4857369;29;20097;-76
2021/08/01 11:25:27;;;;;;;2.05;1.85;;;17.20;99.90;;;;;;4841912;29;20034;-76
2021/08/01 11:28:12;;;;;;;0.95;0.95;;;17.30;99.90;;;;;;4842146;29;20026;-77
2021/08/01 11:30:52;;;;;;;1.42;1.33;;;17.40;99.90;;;;;;4854187;29;20030;-77
2021/08/01 11:33:40;;;;;;;0.35;0.35;;;17.60;99.90;;;;;;4840027;29;20491;-77
2021/08/01 11:36:17;;;;;;;0.10;0.10;;;17.50;99.90;;;;;;4842331;29;20029;-77
2021/08/01 11:38:51;;;;;;;0.75;0.25;;;17.70;99.90;;;;;;4846521;29;20273;-77
2021/08/01 11:41:37;;;;;;;0.47;0.47;;;17.70;99.90;;;;;;4861219;29;20029;-78
2021/08/01 11:44:22;;;;;;;0.15;0.13;;;17.70;99.90;;;;;;4860237;29;20044;-77
2021/08/01 11:47:05;;;;;;;0.30;0.30;;;17.30;99.90;;;;;;4875504;29;20036;-75
2021/08/01 11:49:37;;;;;;;0.20;0.20;;;17.00;99.90;;;;;;4861276;29;20516;-77
2021/08/01 11:52:07;;;;;;;0.30;0.30;;;16.70;99.90;;;;;;4844440;29;20021;-78
2021/08/01 11:54:41;;;;;;;0.13;0.13;;;16.80;99.90;;;;;;4861104;29;20034;-76
2021/08/01 11:57:10;;;;;;;0.10;0.10;;;16.70;99.90;;;;;;4875329;29;20029;-75
2021/08/01 11:59:37;;;;;;;0.68;0.60;;;16.60;99.90;;;;;;4844466;29;20036;-77
2021/08/01 12:02:12;;;;;;;1.00;0.88;;;16.70;99.90;;;;;;4874709;29;20562;-77
2021/08/01 12:04:38;;;;;;;0.68;0.68;;;16.60;99.90;;;;;;4861302;29;20043;-77
2021/08/01 12:07:05;;;;;;;0.10;0.10;;;16.60;99.90;;;;;;4860867;29;20033;-77
2021/08/01 12:09:37;;;;;;;0.10;0.10;;;16.60;99.90;;;;;;4860820;29;20108;-76
2021/08/01 12:12:06;;;;;;;1.20;0.77;;;16.60;99.90;;;;;;4859434;29;20033;-77
2021/08/01 12:14:34;;;;;;;0.10;0.10;;;16.60;99.90;;;;;;4844214;29;20475;-77
2021/08/01 12:17:06;;;;;;;0.10;0.10;;;16.70;99.90;;;;;;4874839;29;20072;-76
2021/08/01 12:19:37;;;;;;;0.10;0.10;;;16.90;99.90;;;;;;4874807;29;20037;-77
2021/08/01 12:22:16;;;;;;;0.30;0.30;;;17.00;99.90;;;;;;4874659;29;20021;-77
2021/08/01 12:24:59;;;;;;;0.10;0.10;;;17.00;99.90;;;;;;4874876;29;20053;-76
2021/08/01 12:27:34;;;;;;;0.00;0.00;;;17.10;99.90;;;;;;4874768;29;20033;-76
2021/08/01 12:30:06;;;;;;;0.10;0.10;;;17.20;99.90;;;;;;4844152;29;20026;-77
2021/08/01 12:32:37;;;;;;;0.10;0.10;;;17.00;99.90;;;;;;4841550;29;20421;-77
2021/08/01 12:35:12;;;;;;;0.20;0.20;;;16.90;99.90;;;;;;4825781;29;20513;-77
2021/08/01 12:38:04;;;;;;;0.17;0.17;;;17.10;99.90;;;;;;4841909;29;20030;-77
2021/08/01 12:40:37;;;;;;;1.60;1.13;;;17.10;99.90;;;;;;4840759;29;21702;-77
2021/08/01 12:43:16;;;;;;;0.10;0.10;;;17.30;99.90;;;;;;4842715;29;20307;-78
2021/08/01 12:45:47;;;;;;;0.50;0.50;;;17.00;99.90;;;;;;4853854;29;20086;-77
2021/08/01 12:48:16;;;;;;;0.03;0.03;;;16.70;99.90;;;;;;4840640;29;20074;-79
2021/08/01 12:50:47;;;;;;;0.20;0.20;;;16.60;99.90;;;;;;4848204;29;20022;-78
2021/08/01 12:53:14;;;;;;;0.00;0.00;;;16.80;99.90;;;;;;4841313;29;20495;-78
2021/08/01 12:55:41;;;;;;;0.25;0.25;;;17.20;99.90;;;;;;4855570;29;20030;-77
2021/08/01 12:58:09;;;;;;;1.75;0.40;;;17.60;99.90;;;;;;4840162;29;20036;-77
2021/08/01 13:00:54;;;;;;;0.00;0.00;;;17.70;99.90;;;;;;4840239;29;20124;-78
2021/08/01 13:03:37;;;;;;;0.10;0.10;;;17.70;99.90;;;;;;4840026;29;20403;-78
2021/08/01 13:06:04;;;;;;;0.57;0.57;;;17.60;99.90;;;;;;4841424;29;20033;-77